Time;durP1;ratioP1;P1;durP2;ratioP2;P2;SDS_P1;SDS_P2;PMS_P1;PMS_P2;Temp;Humidity;BMP_temperature;BMP_pressure;BME280_temperature;BME280_humidity;BME280_pressure;Samples;Min_cycle;Max_cycle;Signal;HPM_P1;HPM_P2
2023/10/20 00:00:16;;;;;;;2.33;2.13;;;6.90;99.90;;;;;;5036744;28;20241;-88
2023/10/20 00:02:43;;;;;;;3.00;2.10;;;6.80;99.90;;;;;;5040165;28;20313;-86
2023/10/20 00:05:10;;;;;;;2.30;2.03;;;6.80;99.90;;;;;;5038914;28;20229;-88
2023/10/20 00:07:37;;;;;;;2.53;2.10;;;6.90;99.90;;;;;;5042751;28;20311;-87
2023/10/20 00:10:05;;;;;;;2.67;2.00;;;6.90;99.90;;;;;;5037096;28;20213;-86
2023/10/20 00:12:34;;;;;;;2.30;2.00;;;6.80;99.90;;;;;;5040644;28;20229;-86
2023/10/20 00:15:01;;;;;;;2.23;2.03;;;6.80;99.90;;;;;;5060130;28;20225;-87
2023/10/20 00:17:29;;;;;;;3.07;2.47;;;6.80;99.90;;;;;;5042132;28;20235;-85
2023/10/20 00:19:56;;;;;;;2.10;1.90;;;6.80;99.90;;;;;;5058681;28;20302;-85
2023/10/20 00:22:23;;;;;;;2.20;2.00;;;6.80;99.90;;;;;;5035594;28;20234;-85
2023/10/20 00:24:50;;;;;;;2.50;2.30;;;6.80;99.90;;;;;;5039307;28;20239;-85
2023/10/20 00:27:17;;;;;;;3.33;2.27;;;6.80;99.90;;;;;;5039485;28;20963;-85
2023/10/20 00:29:45;;;;;;;2.60;2.20;;;6.70;99.90;;;;;;5060454;28;20641;-85
2023/10/20 00:32:12;;;;;;;2.40;2.10;;;6.70;99.90;;;;;;5036977;28;20267;-86
2023/10/20 00:34:39;;;;;;;2.50;2.27;;;6.70;99.90;;;;;;5059549;28;20709;-84
2023/10/20 00:37:06;;;;;;;10.73;2.40;;;6.70;99.90;;;;;;5042852;28;20343;-86
2023/10/20 00:39:34;;;;;;;2.97;1.93;;;6.70;99.90;;;;;;5032616;28;20223;-87
2023/10/20 00:42:03;;;;;;;2.40;2.20;;;6.70;99.90;;;;;;5043316;28;20237;-86
2023/10/20 00:44:30;;;;;;;2.87;2.57;;;6.70;99.90;;;;;;5055091;28;20312;-87
2023/10/20 00:46:59;;;;;;;2.90;2.47;;;6.70;99.90;;;;;;5037009;28;20222;-87
2023/10/20 00:49:25;;;;;;;2.73;2.23;;;6.60;99.90;;;;;;5037562;28;20240;-86
2023/10/20 00:51:52;;;;;;;3.80;2.63;;;6.60;99.90;;;;;;5040755;28;20579;-85
2023/10/20 00:54:20;;;;;;;3.17;2.50;;;6.60;99.90;;;;;;5040389;28;20228;-86
2023/10/20 00:56:47;;;;;;;4.50;2.40;;;6.60;99.90;;;;;;5030165;28;20280;-86
2023/10/20 00:59:14;;;;;;;2.17;2.00;;;6.60;99.90;;;;;;5055840;28;20217;-86
2023/10/20 01:01:41;;;;;;;2.60;2.40;;;6.60;99.90;;;;;;5036870;28;20247;-86
2023/10/20 01:04:09;;;;;;;2.20;2.00;;;6.60;99.90;;;;;;5031112;28;20802;-86
2023/10/20 01:06:37;;;;;;;3.43;2.57;;;6.50;99.90;;;;;;5057369;28;20218;-87
2023/10/20 01:09:04;;;;;;;2.73;2.47;;;6.60;99.90;;;;;;5041140;28;20227;-85
2023/10/20 01:11:32;;;;;;;3.33;2.90;;;6.50;99.90;;;;;;5038932;28;20764;-86
2023/10/20 01:14:00;;;;;;;2.50;2.30;;;6.50;99.90;;;;;;5041523;28;20232;-86
2023/10/20 01:16:28;;;;;;;2.50;2.30;;;6.50;99.90;;;;;;5035096;28;20225;-85
2023/10/20 01:18:55;;;;;;;2.63;2.43;;;6.50;99.90;;;;;;5033226;28;20227;-86
2023/10/20 01:21:23;;;;;;;3.33;2.60;;;6.50;99.90;;;;;;5057341;28;20240;-86
2023/10/20 01:23:54;;;;;;;2.97;2.70;;;6.50;99.90;;;;;;5035257;28;20236;-86
2023/10/20 01:26:23;;;;;;;3.73;2.50;;;6.50;99.90;;;;;;5053009;28;20693;-85
2023/10/20 01:28:49;;;;;;;2.90;2.60;;;6.50;99.90;;;;;;5034424;28;20221;-86
2023/10/20 01:31:16;;;;;;;3.43;2.90;;;6.50;99.90;;;;;;5037946;28;20328;-84
2023/10/20 01:33:43;;;;;;;3.40;3.10;;;6.50;99.90;;;;;;5052532;28;20233;-85
2023/10/20 01:36:10;;;;;;;3.53;3.23;;;6.50;99.90;;;;;;5055790;28;20254;-85
2023/10/20 01:38:37;;;;;;;3.60;3.10;;;6.50;99.90;;;;;;5057630;28;20886;-86
2023/10/20 01:41:06;;;;;;;3.77;3.43;;;6.50;99.90;;;;;;5034085;28;20223;-86
2023/10/20 01:43:33;;;;;;;3.57;3.27;;;6.50;99.90;;;;;;5038309;28;20795;-86
2023/10/20 01:46:00;;;;;;;3.70;3.30;;;6.50;99.90;;;;;;5036042;28;20310;-86
2023/10/20 01:48:27;;;;;;;3.60;3.20;;;6.50;99.90;;;;;;5056809;28;20220;-86
2023/10/20 01:50:55;;;;;;;4.87;3.73;;;6.50;99.90;;;;;;5034277;28;20906;-86
2023/10/20 01:53:22;;;;;;;4.00;3.60;;;6.50;99.90;;;;;;5038070;28;20832;-86
2023/10/20 01:55:50;;;;;;;4.53;3.60;;;6.50;99.90;;;;;;5037965;28;20300;-86
2023/10/20 01:58:19;;;;;;;3.40;3.10;;;6.50;99.90;;;;;;5032715;28;20236;-86
2023/10/20 02:00:49;;;;;;;6.80;3.40;;;6.50;99.90;;;;;;5034354;28;20278;-86
2023/10/20 02:03:16;;;;;;;4.73;3.60;;;6.50;99.90;;;;;;5032388;28;20247;-87
2023/10/20 02:05:43;;;;;;;4.43;3.40;;;6.50;99.90;;;;;;5036367;28;20228;-84
2023/10/20 02:08:10;;;;;;;4.70;3.57;;;6.50;99.90;;;;;;5051843;28;20320;-85
2023/10/20 02:10:37;;;;;;;4.07;3.67;;;6.40;99.90;;;;;;5038778;28;20228;-85
2023/10/20 02:13:04;;;;;;;4.33;3.73;;;6.40;99.90;;;;;;5035929;28;20280;-86
2023/10/20 02:15:33;;;;;;;3.87;3.47;;;6.40;99.90;;;;;;5026703;28;20224;-85
2023/10/20 02:18:00;;;;;;;3.57;3.27;;;6.40;99.90;;;;;;5035588;28;20286;-86
2023/10/20 02:20:27;;;;;;;3.50;3.20;;;6.40;99.90;;;;;;5035149;28;20230;-86
2023/10/20 02:22:54;;;;;;;3.97;3.00;;;6.30;99.90;;;;;;5056832;28;20290;-85
2023/10/20 02:25:22;;;;;;;3.93;3.53;;;6.30;99.90;;;;;;5037427;28;20297;-85
2023/10/20 02:27:49;;;;;;;3.40;3.07;;;6.30;99.90;;;;;;5037346;28;20225;-86
2023/10/20 02:30:16;;;;;;;5.67;3.63;;;6.30;99.90;;;;;;5039510;28;20596;-87
2023/10/20 02:32:44;;;;;;;3.77;3.40;;;6.30;99.90;;;;;;5030817;28;20353;-86
2023/10/20 02:35:13;;;;;;;4.37;3.47;;;6.20;99.90;;;;;;5039266;28;20630;-87
2023/10/20 02:37:39;;;;;;;4.17;3.77;;;6.20;99.90;;;;;;5030779;28;20221;-85
2023/10/20 02:40:08;;;;;;;6.83;3.80;;;6.20;99.90;;;;;;5029641;28;20220;-85
2023/10/20 02:42:35;;;;;;;4.50;3.63;;;6.20;99.90;;;;;;5036661;28;20238;-86
2023/10/20 02:45:10;;;;;;;3.97;3.40;;;6.20;99.90;;;;;;5056540;28;20244;-86
2023/10/20 02:47:37;;;;;;;4.40;4.00;;;6.20;99.90;;;;;;5036741;28;20658;-85
2023/10/20 02:50:07;;;;;;;4.20;3.80;;;6.20;99.90;;;;;;5038717;28;20226;-85
2023/10/20 02:52:34;;;;;;;5.60;4.50;;;6.10;99.90;;;;;;5055618;28;20228;-84
2023/10/20 02:55:01;;;;;;;15.67;4.07;;;6.10;99.90;;;;;;5030521;28;20255;-86
2023/10/20 02:57:27;;;;;;;5.17;3.77;;;6.10;99.90;;;;;;5039565;28;20297;-84
2023/10/20 02:59:54;;;;;;;4.73;3.60;;;6.10;99.90;;;;;;5038231;28;20668;-84
2023/10/20 03:02:22;;;;;;;3.97;3.57;;;6.10;99.90;;;;;;5036551;28;20221;-86
2023/10/20 03:04:52;;;;;;;3.90;3.50;;;6.10;99.90;;;;;;5037859;28;20231;-87
2023/10/20 03:07:24;;;;;;;4.63;3.77;;;6.10;99.90;;;;;;5049460;28;20271;-84
2023/10/20 03:09:51;;;;;;;3.87;3.03;;;6.10;99.90;;;;;;5039257;28;20337;-84
2023/10/20 03:12:18;;;;;;;3.50;3.13;;;6.00;99.90;;;;;;5039124;28;20247;-84
2023/10/20 03:14:46;;;;;;;4.07;3.30;;;6.00;99.90;;;;;;5036096;28;20219;-86
2023/10/20 03:17:12;;;;;;;4.00;3.40;;;6.00;99.90;;;;;;5032870;28;20248;-85
2023/10/20 03:19:40;;;;;;;4.00;3.07;;;6.10;99.90;;;;;;5038462;28;20291;-85
2023/10/20 03:22:08;;;;;;;3.53;3.23;;;6.00;99.90;;;;;;5032628;28;20221;-86
2023/10/20 03:24:37;;;;;;;3.57;2.87;;;6.00;99.90;;;;;;5041151;28;20644;-85
2023/10/20 03:27:03;;;;;;;3.83;2.83;;;6.00;99.90;;;;;;5038609;28;20208;-85
2023/10/20 03:29:30;;;;;;;4.57;3.13;;;6.10;99.90;;;;;;5037184;28;20236;-84
2023/10/20 03:31:57;;;;;;;3.40;3.03;;;6.10;99.90;;;;;;5039755;28;20224;-85
2023/10/20 03:34:25;;;;;;;2.80;2.60;;;6.10;99.90;;;;;;5037015;28;20307;-86
2023/10/20 03:36:52;;;;;;;3.03;2.73;;;6.00;99.90;;;;;;5030072;28;20234;-86
2023/10/20 03:39:20;;;;;;;2.63;2.40;;;6.10;99.90;;;;;;5035885;28;20236;-84
2023/10/20 03:41:50;;;;;;;3.00;2.70;;;6.00;99.90;;;;;;5049813;28;20255;-85
2023/10/20 03:44:17;;;;;;;3.10;2.50;;;6.00;99.90;;;;;;5037537;28;20308;-87
2023/10/20 03:46:48;;;;;;;3.93;2.97;;;6.00;99.90;;;;;;5037995;28;20226;-86
2023/10/20 03:49:16;;;;;;;3.33;2.87;;;6.00;99.90;;;;;;5036877;28;20217;-87
2023/10/20 03:51:49;;;;;;;3.40;2.57;;;6.00;99.90;;;;;;5045631;28;20299;-86
2023/10/20 03:54:16;;;;;;;3.90;3.17;;;5.90;99.90;;;;;;5032114;28;20237;-85
2023/10/20 03:56:43;;;;;;;4.00;2.43;;;5.90;99.90;;;;;;5033899;28;20246;-86
2023/10/20 03:59:13;;;;;;;2.93;2.67;;;5.90;99.90;;;;;;5053265;28;20280;-87
2023/10/20 04:01:40;;;;;;;2.80;2.50;;;5.90;99.90;;;;;;5034721;28;20825;-87
2023/10/20 04:04:08;;;;;;;3.70;3.00;;;5.90;99.90;;;;;;5035058;28;20323;-85
2023/10/20 04:06:36;;;;;;;3.50;3.00;;;5.90;99.90;;;;;;5040670;28;20630;-85
2023/10/20 04:09:07;;;;;;;4.17;2.93;;;5.90;99.90;;;;;;5054223;28;20240;-85
2023/10/20 04:11:34;;;;;;;4.13;3.20;;;5.90;99.90;;;;;;5029760;28;20223;-85
2023/10/20 04:14:05;;;;;;;3.67;3.37;;;5.90;99.90;;;;;;5035717;28;20292;-86
2023/10/20 04:16:39;;;;;;;5.87;3.20;;;5.90;99.90;;;;;;5048076;28;20758;-86
2023/10/20 04:19:06;;;;;;;7.53;3.07;;;5.90;99.90;;;;;;5052685;28;20252;-89
2023/10/20 04:21:35;;;;;;;3.43;3.13;;;5.90;99.90;;;;;;5037320;28;20227;-87
2023/10/20 04:24:07;;;;;;;12.67;3.90;;;5.90;99.90;;;;;;5052804;28;20286;-88
2023/10/20 04:26:35;;;;;;;17.87;4.13;;;5.90;99.90;;;;;;5044000;28;20234;-85
2023/10/20 04:29:23;;;;;;;11.03;4.03;;;5.90;99.90;;;;;;5040974;28;20282;-85
2023/10/20 04:43:33;;;;;;;5.50;4.00;;;5.80;99.90;;;;;;5055233;28;20228;-85
2023/10/20 04:49:17;;;;;;;14.43;4.93;;;5.90;99.90;;;;;;5041801;28;20261;-85
2023/10/20 04:52:04;;;;;;;15.10;4.97;;;5.90;99.90;;;;;;5044292;28;20302;-85
2023/10/20 04:54:44;;;;;;;13.97;4.83;;;5.90;99.90;;;;;;5046544;28;20221;-85
2023/10/20 04:57:39;;;;;;;4.70;4.20;;;5.80;99.90;;;;;;5066257;28;20227;-85
2023/10/20 05:03:31;;;;;;;5.77;4.07;;;5.90;99.90;;;;;;5100586;27;21105;-82
2023/10/20 05:06:19;;;;;;;4.80;4.20;;;5.80;99.90;;;;;;5102643;28;20225;-82
2023/10/20 05:08:47;;;;;;;19.20;4.87;;;5.80;99.90;;;;;;5094184;28;20235;-82
2023/10/20 05:11:14;;;;;;;170.03;12.70;;;5.80;99.90;;;;;;5075967;28;20246;-83
2023/10/20 05:13:41;;;;;;;29.60;6.17;;;5.80;99.90;;;;;;5096087;28;20253;-82
2023/10/20 05:16:09;;;;;;;5.93;4.23;;;5.80;99.90;;;;;;5095467;27;20219;-82
2023/10/20 05:18:38;;;;;;;5.73;4.30;;;5.80;99.90;;;;;;5090066;28;20220;-82
2023/10/20 05:21:05;;;;;;;5.97;4.30;;;5.80;99.90;;;;;;5090212;28;20913;-82
2023/10/20 05:23:33;;;;;;;6.20;4.07;;;5.80;99.90;;;;;;5089816;27;20221;-82
2023/10/20 05:26:00;;;;;;;4.20;3.80;;;5.80;99.90;;;;;;5093093;28;20211;-82
2023/10/20 05:28:27;;;;;;;4.90;3.77;;;5.70;99.90;;;;;;5094719;28;20231;-82
2023/10/20 05:30:54;;;;;;;4.30;3.70;;;5.70;99.90;;;;;;5092583;28;20228;-82
2023/10/20 05:33:21;;;;;;;4.90;4.10;;;5.70;99.90;;;;;;5094953;28;20221;-82
2023/10/20 05:35:49;;;;;;;4.80;3.70;;;5.70;99.90;;;;;;5096981;28;20296;-82
2023/10/20 05:38:16;;;;;;;13.80;4.57;;;5.70;99.90;;;;;;5087652;28;20224;-82
2023/10/20 05:40:42;;;;;;;6.87;4.40;;;5.70;99.90;;;;;;5086051;28;20297;-82
2023/10/20 05:43:09;;;;;;;4.53;3.73;;;5.70;99.90;;;;;;5092978;27;20513;-82
2023/10/20 05:45:40;;;;;;;4.20;3.80;;;5.70;99.90;;;;;;5096929;28;20236;-82
2023/10/20 05:48:07;;;;;;;4.50;3.50;;;5.60;99.90;;;;;;5093072;28;20223;-81
2023/10/20 05:50:36;;;;;;;4.37;3.40;;;5.70;99.90;;;;;;5090060;28;20663;-82
2023/10/20 05:53:04;;;;;;;3.63;3.23;;;5.70;99.90;;;;;;5089016;28;20215;-82
2023/10/20 05:55:31;;;;;;;3.13;2.67;;;5.70;99.90;;;;;;5089933;28;20222;-82
2023/10/20 05:57:58;;;;;;;3.30;2.53;;;5.60;99.90;;;;;;5078767;28;20521;-82
2023/10/20 06:00:25;;;;;;;4.00;3.00;;;5.60;99.90;;;;;;5093317;28;21024;-81
2023/10/20 06:02:52;;;;;;;3.77;3.37;;;5.60;99.90;;;;;;5081432;28;20990;-81
2023/10/20 06:05:19;;;;;;;5.30;2.93;;;5.60;99.90;;;;;;5095308;28;20230;-82
2023/10/20 06:07:47;;;;;;;3.70;2.83;;;5.60;99.90;;;;;;5095521;28;20212;-82
2023/10/20 06:10:22;;;;;;;4.03;3.03;;;5.60;99.90;;;;;;5093917;28;20350;-82
2023/10/20 06:12:50;;;;;;;3.93;3.00;;;5.60;99.90;;;;;;5097341;28;20844;-82
2023/10/20 06:15:16;;;;;;;3.30;3.00;;;5.60;99.90;;;;;;5077641;28;20235;-82
2023/10/20 06:17:44;;;;;;;3.03;2.80;;;5.60;99.90;;;;;;5082026;28;20221;-82
2023/10/20 06:20:11;;;;;;;3.70;2.90;;;5.70;99.90;;;;;;5083723;28;20231;-82
2023/10/20 06:22:38;;;;;;;4.20;3.23;;;5.60;99.90;;;;;;5080084;28;20231;-82
2023/10/20 06:25:10;;;;;;;4.67;3.10;;;5.60;99.90;;;;;;5082886;28;20228;-81
2023/10/20 06:27:39;;;;;;;3.40;3.10;;;5.60;99.90;;;;;;5087587;28;20226;-82
2023/10/20 06:30:14;;;;;;;3.93;3.53;;;5.60;99.90;;;;;;5082305;28;20222;-82
2023/10/20 06:32:42;;;;;;;4.07;3.53;;;5.60;99.90;;;;;;5080313;28;20226;-81
2023/10/20 06:35:12;;;;;;;4.43;3.43;;;5.60;99.90;;;;;;5087395;28;20230;-82
2023/10/20 06:37:45;;;;;;;5.53;3.90;;;5.60;99.90;;;;;;5085111;28;20294;-82
2023/10/20 06:40:15;;;;;;;4.00;3.60;;;5.60;99.90;;;;;;5081994;28;20231;-82
2023/10/20 06:42:44;;;;;;;5.87;3.77;;;5.60;99.90;;;;;;5081192;28;20226;-82
2023/10/20 06:45:11;;;;;;;6.00;3.80;;;5.60;99.90;;;;;;5079939;28;20243;-82
2023/10/20 06:47:39;;;;;;;4.00;3.40;;;5.60;99.90;;;;;;5081368;28;20219;-83
2023/10/20 06:50:07;;;;;;;3.63;3.23;;;5.60;99.90;;;;;;5077100;28;20295;-81
2023/10/20 06:52:35;;;;;;;3.63;3.20;;;5.60;99.90;;;;;;5079985;28;20230;-81
2023/10/20 06:55:02;;;;;;;4.40;4.00;;;5.60;99.90;;;;;;5081019;28;20219;-81
2023/10/20 06:57:29;;;;;;;4.90;3.97;;;5.60;99.90;;;;;;5080796;28;20234;-81
2023/10/20 06:59:57;;;;;;;5.20;4.20;;;5.60;99.90;;;;;;5083562;28;20227;-80
2023/10/20 07:02:23;;;;;;;6.43;4.40;;;5.70;99.90;;;;;;5080480;28;20222;-81
2023/10/20 07:04:50;;;;;;;4.70;4.17;;;5.60;99.90;;;;;;5088809;28;20720;-80
2023/10/20 07:07:18;;;;;;;5.67;5.00;;;5.60;99.90;;;;;;5083009;28;20227;-81
2023/10/20 07:09:45;;;;;;;5.80;4.93;;;5.60;99.90;;;;;;5078332;28;20305;-80
2023/10/20 07:12:13;;;;;;;5.00;4.50;;;5.60;99.90;;;;;;5085247;28;20605;-81
2023/10/20 07:14:40;;;;;;;5.73;4.47;;;5.60;99.90;;;;;;5080664;28;20219;-80
2023/10/20 07:17:08;;;;;;;5.30;4.57;;;5.60;99.90;;;;;;5080923;28;20645;-79
2023/10/20 07:19:35;;;;;;;6.20;5.03;;;5.60;99.90;;;;;;5075024;28;21647;-81
2023/10/20 07:22:02;;;;;;;5.67;4.73;;;5.60;99.90;;;;;;5079220;28;20223;-78
2023/10/20 07:24:29;;;;;;;6.50;5.27;;;5.60;99.90;;;;;;5078351;28;20225;-80
2023/10/20 07:26:56;;;;;;;7.67;5.57;;;5.60;99.90;;;;;;5086246;28;20223;-82
2023/10/20 07:29:23;;;;;;;6.27;5.07;;;5.60;99.90;;;;;;5086316;28;20292;-81
2023/10/20 07:31:49;;;;;;;7.60;5.97;;;5.60;99.90;;;;;;5078992;28;20227;-81
2023/10/20 07:34:17;;;;;;;7.27;5.77;;;5.60;99.90;;;;;;5085634;28;20230;-81
2023/10/20 07:36:45;;;;;;;7.20;5.97;;;5.60;99.90;;;;;;5086856;28;20265;-81
2023/10/20 07:39:16;;;;;;;8.77;6.73;;;5.60;99.90;;;;;;5082092;28;20234;-81
2023/10/20 07:41:42;;;;;;;7.60;6.50;;;5.60;99.90;;;;;;5082621;28;20218;-81
2023/10/20 07:44:11;;;;;;;8.60;6.83;;;5.60;99.90;;;;;;5088073;28;20313;-80
2023/10/20 07:46:37;;;;;;;8.07;6.73;;;5.60;99.90;;;;;;5076780;28;20231;-81
2023/10/20 07:49:04;;;;;;;8.77;6.60;;;5.60;99.90;;;;;;5081424;28;20223;-81
2023/10/20 07:51:32;;;;;;;9.43;7.07;;;5.60;99.90;;;;;;5087276;28;20216;-81
2023/10/20 07:53:59;;;;;;;8.37;6.93;;;5.60;99.90;;;;;;5089849;28;20267;-81
2023/10/20 07:56:26;;;;;;;8.20;7.07;;;5.60;99.90;;;;;;5100997;28;20226;-81
2023/10/20 07:58:53;;;;;;;12.83;7.73;;;5.60;99.90;;;;;;5086782;28;20227;-81
2023/10/20 08:01:20;;;;;;;8.90;7.17;;;5.60;99.90;;;;;;5082510;28;20658;-81
2023/10/20 08:03:47;;;;;;;9.87;7.50;;;5.60;99.90;;;;;;5088707;28;20243;-81
2023/10/20 08:06:14;;;;;;;9.43;7.70;;;5.50;99.90;;;;;;5085574;28;20227;-81
2023/10/20 08:08:42;;;;;;;10.67;7.50;;;5.60;99.90;;;;;;5078878;28;20233;-83
2023/10/20 08:11:09;;;;;;;9.10;7.10;;;5.50;99.90;;;;;;5082981;28;20281;-81
2023/10/20 08:13:36;;;;;;;10.53;7.67;;;5.50;99.90;;;;;;5086970;28;20219;-80
2023/10/20 08:16:03;;;;;;;9.43;7.17;;;5.50;99.90;;;;;;5091519;28;20697;-81
2023/10/20 08:18:33;;;;;;;8.53;6.83;;;5.50;99.90;;;;;;5078413;28;20223;-78
2023/10/20 08:21:04;;;;;;;10.40;7.20;;;5.50;99.90;;;;;;5068794;28;20761;-78
2023/10/20 08:23:31;;;;;;;9.73;7.10;;;5.50;99.90;;;;;;5075152;28;20603;-78
2023/10/20 08:25:59;;;;;;;9.27;6.63;;;5.50;99.90;;;;;;5071394;28;20262;-78
2023/10/20 08:28:26;;;;;;;10.57;7.50;;;5.50;99.90;;;;;;5071920;28;20226;-78
2023/10/20 08:30:52;;;;;;;8.37;6.57;;;5.50;99.90;;;;;;5077658;28;20229;-78
2023/10/20 08:33:19;;;;;;;8.57;6.63;;;5.50;99.90;;;;;;5074151;28;20705;-78
2023/10/20 08:35:46;;;;;;;8.90;6.80;;;5.50;99.90;;;;;;5079284;28;20230;-78
2023/10/20 08:38:15;;;;;;;9.00;6.83;;;5.50;99.90;;;;;;5075119;28;20744;-76
2023/10/20 08:40:41;;;;;;;8.30;6.03;;;5.50;99.90;;;;;;5081785;28;20231;-76
2023/10/20 08:43:09;;;;;;;10.93;6.13;;;5.50;99.90;;;;;;5078828;28;20227;-77
2023/10/20 08:45:36;;;;;;;6.13;5.47;;;5.50;99.90;;;;;;5077544;28;20226;-77
2023/10/20 08:48:04;;;;;;;8.23;6.13;;;5.50;99.90;;;;;;5078428;28;20246;-77
2023/10/20 08:50:32;;;;;;;6.43;5.50;;;5.50;99.90;;;;;;5071221;28;20219;-77
2023/10/20 08:53:02;;;;;;;7.20;5.83;;;5.50;99.90;;;;;;5067272;28;20220;-77
2023/10/20 08:55:29;;;;;;;8.57;6.57;;;5.50;99.90;;;;;;5065758;28;20231;-77
2023/10/20 08:57:55;;;;;;;8.60;6.13;;;5.50;99.90;;;;;;5079182;28;20582;-77
2023/10/20 09:00:23;;;;;;;8.37;6.53;;;5.50;99.90;;;;;;5068396;28;20923;-77
2023/10/20 09:02:50;;;;;;;10.27;7.27;;;5.50;99.90;;;;;;5075915;28;20222;-77
2023/10/20 09:05:26;;;;;;;7.13;6.43;;;5.50;99.90;;;;;;5063175;28;20227;-78
2023/10/20 09:07:53;;;;;;;11.40;7.17;;;5.50;99.90;;;;;;5077626;28;20226;-76
2023/10/20 09:10:20;;;;;;;10.87;8.47;;;5.50;99.90;;;;;;5076614;28;20231;-77
2023/10/20 09:12:47;;;;;;;7.90;6.50;;;5.50;99.90;;;;;;5075012;28;20221;-77
2023/10/20 09:15:13;;;;;;;7.00;6.13;;;5.50;99.90;;;;;;5073191;28;20222;-77
2023/10/20 09:17:42;;;;;;;8.10;6.70;;;5.50;99.90;;;;;;5078572;28;20227;-77
2023/10/20 09:20:11;;;;;;;8.53;6.40;;;5.50;99.90;;;;;;5072094;28;20223;-77
2023/10/20 09:22:38;;;;;;;7.23;6.03;;;5.50;99.90;;;;;;5076505;28;20218;-76
2023/10/20 09:25:09;;;;;;;8.07;6.97;;;5.50;99.90;;;;;;5068559;28;20236;-77
2023/10/20 09:27:37;;;;;;;7.50;6.70;;;5.50;99.90;;;;;;5073347;28;20834;-77
2023/10/20 09:30:08;;;;;;;7.40;5.87;;;5.50;99.90;;;;;;5074421;28;20716;-77
2023/10/20 09:32:35;;;;;;;6.57;5.87;;;5.50;99.90;;;;;;5067491;28;20753;-77
2023/10/20 09:35:04;;;;;;;9.17;6.63;;;5.60;99.90;;;;;;5079934;28;20225;-77
2023/10/20 09:37:42;;;;;;;6.63;5.60;;;5.60;99.90;;;;;;5070498;28;20226;-77
2023/10/20 09:40:10;;;;;;;7.50;5.87;;;5.60;99.90;;;;;;5071078;28;20234;-77
2023/10/20 09:42:47;;;;;;;5.80;5.20;;;5.60;99.90;;;;;;5071616;28;20271;-77
2023/10/20 09:45:16;;;;;;;7.57;5.23;;;5.60;99.90;;;;;;5071885;28;20221;-77
2023/10/20 09:47:45;;;;;;;13.13;6.13;;;5.60;99.90;;;;;;5076578;28;20227;-77
2023/10/20 09:50:14;;;;;;;6.70;5.43;;;5.60;99.90;;;;;;5079392;28;20230;-77
2023/10/20 09:52:42;;;;;;;6.07;5.23;;;5.60;99.90;;;;;;5075272;28;20310;-77
2023/10/20 09:55:11;;;;;;;6.57;4.67;;;5.60;99.90;;;;;;5079127;28;20772;-77
2023/10/20 09:57:38;;;;;;;6.17;4.93;;;5.60;99.90;;;;;;5080106;28;20317;-77
2023/10/20 10:00:07;;;;;;;6.20;4.80;;;5.60;99.90;;;;;;5080855;28;20226;-76
2023/10/20 10:02:33;;;;;;;5.37;4.63;;;5.60;99.90;;;;;;5080829;28;20222;-77
2023/10/20 10:05:01;;;;;;;8.80;6.03;;;5.60;99.90;;;;;;5077303;28;20228;-77
2023/10/20 10:07:30;;;;;;;5.30;4.50;;;5.60;99.90;;;;;;5073906;28;20280;-77
2023/10/20 10:09:57;;;;;;;5.93;5.03;;;5.60;99.90;;;;;;5080217;28;20626;-77
2023/10/20 10:12:25;;;;;;;6.03;4.30;;;5.60;99.90;;;;;;5076494;28;20698;-77
2023/10/20 10:14:57;;;;;;;5.47;4.97;;;5.70;99.90;;;;;;5084236;28;20237;-77
2023/10/20 10:17:26;;;;;;;4.40;3.87;;;5.70;99.90;;;;;;5084171;28;20697;-76
2023/10/20 10:19:54;;;;;;;5.10;4.40;;;5.70;99.90;;;;;;5082446;28;20704;-77
2023/10/20 10:22:27;;;;;;;4.40;4.00;;;5.70;99.90;;;;;;5079357;28;20697;-80
2023/10/20 10:24:57;;;;;;;4.93;3.60;;;5.70;99.90;;;;;;5075781;28;20242;-80
2023/10/20 10:27:27;;;;;;;4.27;3.77;;;5.70;99.90;;;;;;5079008;28;20230;-79
2023/10/20 10:29:58;;;;;;;5.20;3.77;;;5.70;99.90;;;;;;5075010;28;20257;-79
2023/10/20 10:32:31;;;;;;;4.27;3.60;;;5.60;99.90;;;;;;5076590;28;20239;-79
2023/10/20 10:34:59;;;;;;;4.90;4.50;;;5.60;99.90;;;;;;5079886;28;20258;-79
2023/10/20 10:37:32;;;;;;;6.27;5.77;;;5.60;99.90;;;;;;5079149;28;21358;-80
2023/10/20 10:40:08;;;;;;;4.20;3.77;;;5.60;99.90;;;;;;5079193;28;20234;-80
2023/10/20 10:42:39;;;;;;;3.83;3.30;;;5.60;99.90;;;;;;5082797;28;20321;-79
2023/10/20 10:45:15;;;;;;;4.00;3.13;;;5.60;99.90;;;;;;5056304;28;20227;-80
2023/10/20 10:47:41;;;;;;;5.20;3.60;;;5.60;99.90;;;;;;5063526;28;20228;-79
2023/10/20 10:50:09;;;;;;;5.13;4.17;;;5.60;99.90;;;;;;5063205;28;20598;-79
2023/10/20 10:52:36;;;;;;;3.73;3.33;;;5.50;99.90;;;;;;5062300;28;20223;-79
2023/10/20 10:55:05;;;;;;;4.47;3.60;;;5.50;99.90;;;;;;5062209;28;20220;-79
2023/10/20 10:57:33;;;;;;;3.60;3.27;;;5.50;99.90;;;;;;5059762;28;20309;-80
2023/10/20 11:00:00;;;;;;;4.07;3.43;;;5.50;99.90;;;;;;5058157;28;20317;-79
2023/10/20 11:02:26;;;;;;;5.10;3.70;;;5.50;99.90;;;;;;5057349;28;21797;-80
2023/10/20 11:04:53;;;;;;;3.20;2.90;;;5.60;99.90;;;;;;5060886;28;20250;-80
2023/10/20 11:07:22;;;;;;;4.00;3.10;;;5.60;99.90;;;;;;5065759;28;20407;-80
2023/10/20 11:09:49;;;;;;;3.67;3.27;;;5.60;99.90;;;;;;5064223;27;20323;-78
2023/10/20 11:12:17;;;;;;;3.50;3.07;;;5.60;99.90;;;;;;5079493;28;20242;-79
2023/10/20 11:14:43;;;;;;;3.23;2.93;;;5.60;99.90;;;;;;5073510;28;20652;-78
2023/10/20 11:17:10;;;;;;;3.83;2.77;;;5.60;99.90;;;;;;5072048;28;20611;-77
2023/10/20 11:19:37;;;;;;;2.93;2.67;;;5.70;99.90;;;;;;5070187;28;20226;-77
2023/10/20 11:22:14;;;;;;;3.67;2.80;;;5.70;99.90;;;;;;5071847;28;20220;-78
2023/10/20 11:24:41;;;;;;;2.97;2.67;;;5.70;99.90;;;;;;5090722;28;20226;-79
2023/10/20 11:27:08;;;;;;;3.03;2.77;;;5.70;99.90;;;;;;5089583;28;20288;-79
2023/10/20 11:29:37;;;;;;;4.63;2.80;;;5.70;99.90;;;;;;5077501;28;20230;-79
2023/10/20 11:32:07;;;;;;;4.03;3.00;;;5.70;99.90;;;;;;5080521;28;20223;-80
2023/10/20 11:34:34;;;;;;;4.07;3.00;;;5.70;99.90;;;;;;5075687;28;20246;-78
2023/10/20 11:37:01;;;;;;;3.80;3.03;;;5.70;99.90;;;;;;5080754;28;20226;-78
2023/10/20 11:39:28;;;;;;;4.43;3.27;;;5.60;99.90;;;;;;5082977;28;20228;-78
2023/10/20 11:41:58;;;;;;;22.03;13.90;;;5.70;99.90;;;;;;5090042;28;20735;-79
2023/10/20 11:44:26;;;;;;;22.83;20.10;;;5.70;99.90;;;;;;5077823;28;20234;-79
2023/10/20 11:46:54;;;;;;;23.20;4.93;;;5.70;99.90;;;;;;5071003;28;20303;-79
2023/10/20 11:49:25;;;;;;;3.10;2.53;;;5.70;99.90;;;;;;5065089;28;20785;-79
2023/10/20 11:51:52;;;;;;;3.10;2.80;;;5.70;99.90;;;;;;5068749;28;20224;-79
2023/10/20 11:54:19;;;;;;;3.03;2.40;;;5.70;99.90;;;;;;5069220;28;20709;-79
2023/10/20 11:56:51;;;;;;;2.20;2.00;;;5.80;99.90;;;;;;5086278;28;20274;-79
2023/10/20 11:59:17;;;;;;;2.60;2.40;;;5.80;99.90;;;;;;5091660;28;20477;-78
2023/10/20 12:01:44;;;;;;;2.33;2.07;;;5.80;99.90;;;;;;5090462;28;20238;-78
2023/10/20 12:04:12;;;;;;;2.53;2.10;;;5.80;99.90;;;;;;5090926;28;20234;-78
2023/10/20 12:06:39;;;;;;;1.83;1.63;;;5.80;99.90;;;;;;5090119;28;20236;-78
2023/10/20 12:09:08;;;;;;;2.60;2.40;;;5.80;99.90;;;;;;5071489;28;20221;-79
2023/10/20 12:11:36;;;;;;;2.07;1.83;;;5.80;99.90;;;;;;5094089;28;20224;-77
2023/10/20 12:14:03;;;;;;;2.73;2.33;;;5.80;99.90;;;;;;5079265;28;20247;-78
2023/10/20 12:16:29;;;;;;;3.17;1.83;;;5.70;99.90;;;;;;5089251;28;20230;-78
2023/10/20 12:19:01;;;;;;;3.73;1.83;;;5.80;99.90;;;;;;5072350;28;20596;-79
2023/10/20 12:21:29;;;;;;;2.43;1.80;;;5.80;99.90;;;;;;5074570;28;20238;-77
2023/10/20 12:23:56;;;;;;;5.23;3.47;;;5.80;99.90;;;;;;5085795;28;20662;-78
2023/10/20 12:26:23;;;;;;;12.37;8.27;;;5.80;99.90;;;;;;5089057;28;20603;-78
2023/10/20 12:28:50;;;;;;;2.40;1.97;;;5.80;99.90;;;;;;5089412;28;20731;-77
2023/10/20 12:31:17;;;;;;;1.90;1.67;;;5.90;99.90;;;;;;5087062;28;20308;-77
2023/10/20 12:33:45;;;;;;;1.70;1.60;;;5.80;99.90;;;;;;5088913;28;20229;-77
2023/10/20 12:36:13;;;;;;;2.37;1.87;;;5.90;99.90;;;;;;5066353;28;20298;-77
2023/10/20 12:38:43;;;;;;;1.50;1.40;;;5.90;99.90;;;;;;5083089;28;20705;-77
2023/10/20 12:41:10;;;;;;;1.67;1.30;;;5.80;99.90;;;;;;5088351;28;20705;-76
2023/10/20 12:43:37;;;;;;;1.80;1.60;;;5.90;99.90;;;;;;5071632;28;20220;-77
2023/10/20 12:46:04;;;;;;;1.43;1.33;;;5.90;99.90;;;;;;5068912;28;20244;-77
2023/10/20 12:48:31;;;;;;;1.67;1.47;;;5.80;99.90;;;;;;5072353;28;20222;-78
2023/10/20 12:50:57;;;;;;;2.23;1.30;;;5.80;99.90;;;;;;5088391;28;20636;-78
2023/10/20 12:53:24;;;;;;;3.80;1.67;;;5.90;99.90;;;;;;5081991;28;20616;-77
2023/10/20 12:55:54;;;;;;;1.30;1.20;;;5.90;99.90;;;;;;5072383;28;20311;-78
2023/10/20 12:58:21;;;;;;;1.23;1.13;;;5.90;99.90;;;;;;5087776;28;20218;-78
2023/10/20 13:00:47;;;;;;;1.40;1.23;;;5.90;99.90;;;;;;5083141;28;20227;-78
2023/10/20 13:03:14;;;;;;;2.67;1.60;;;5.90;99.90;;;;;;5080434;28;20219;-78
2023/10/20 13:05:41;;;;;;;1.33;1.23;;;5.90;99.90;;;;;;5074291;28;20614;-77
2023/10/20 13:08:08;;;;;;;1.23;1.13;;;6.00;99.90;;;;;;5068591;28;20232;-78
2023/10/20 13:10:35;;;;;;;1.43;1.20;;;5.90;99.90;;;;;;5071851;28;20223;-77
2023/10/20 13:13:03;;;;;;;2.17;1.20;;;6.00;99.90;;;;;;5087594;28;20226;-78
2023/10/20 13:15:30;;;;;;;2.23;1.50;;;5.90;99.90;;;;;;5077319;28;20213;-77
2023/10/20 13:17:56;;;;;;;1.50;1.37;;;5.90;99.90;;;;;;5075042;28;20759;-79